createdAt,value
2018-09-10T00:00:51.887Z,60372.48
2018-09-10T00:03:20.075Z,60384.68
2018-09-10T00:05:48.251Z,60362.32
2018-09-10T00:08:16.457Z,60372.48
2018-09-10T00:10:44.644Z,60388.74
2018-09-10T00:13:12.820Z,60394.84
2018-09-10T00:15:41.018Z,60380.61
2018-09-10T00:18:09.191Z,60365.37
2018-09-10T00:20:37.384Z,60386.71
2018-09-10T00:23:05.563Z,60365.37
2018-09-10T00:25:33.748Z,60377.56
2018-09-10T00:28:01.936Z,60387.72
2018-09-10T00:30:30.238Z,60378.58
2018-09-10T00:32:58.412Z,60394.84
2018-09-10T00:35:26.602Z,60367.40
2018-09-10T00:37:54.783Z,60382.64
2018-09-10T00:40:23.019Z,60356.22
2018-09-10T00:42:51.204Z,60377.56
2018-09-10T00:45:19.432Z,60384.68
2018-09-10T00:47:47.632Z,60392.80
2018-09-10T00:50:15.832Z,60360.29
2018-09-10T00:52:44.003Z,60385.69
2018-09-10T00:55:12.223Z,60366.39
2018-09-10T00:57:40.404Z,60395.86
2018-09-10T01:00:08.592Z,60379.59
2018-09-10T01:02:36.787Z,60372.48
2018-09-10T01:05:05.073Z,60392.80
2018-09-10T01:07:33.259Z,60359.27
2018-09-10T01:10:01.443Z,60393.82
2018-09-10T01:12:29.656Z,60386.71
2018-09-10T01:14:57.832Z,60381.63
2018-09-10T01:17:26.026Z,60367.40
2018-09-10T01:19:54.940Z,60355.21
2018-09-10T01:22:23.406Z,60388.74
2018-09-10T01:24:51.587Z,60382.64
2018-09-10T01:27:19.784Z,60379.59
2018-09-10T01:29:47.959Z,60387.72
2018-09-10T01:32:16.156Z,60382.64
2018-09-10T01:34:49.680Z,60377.56
2018-09-10T01:37:17.857Z,60356.22
2018-09-10T01:39:46.035Z,60364.35
2018-09-10T01:42:14.227Z,60374.52
2018-09-10T01:44:42.424Z,60372.48
2018-09-10T01:47:10.603Z,60371.46
2018-09-10T01:49:38.778Z,60361.30
2018-09-10T01:52:06.954Z,60361.30
2018-09-10T01:54:35.531Z,60363.34
2018-09-10T01:57:03.718Z,60379.59
2018-09-10T01:59:31.900Z,60381.63
2018-09-10T02:02:00.084Z,60370.45
2018-09-10T02:04:28.267Z,60379.59
2018-09-10T02:06:56.435Z,60381.63
2018-09-10T02:09:24.608Z,60368.42
2018-09-10T02:11:52.863Z,60379.59
2018-09-10T02:14:21.041Z,60389.76
2018-09-10T02:16:49.224Z,60369.43
2018-09-10T02:19:17.401Z,60353.18
2018-09-10T02:21:45.597Z,60369.43
2018-09-10T02:24:13.777Z,60379.59
2018-09-10T02:26:41.954Z,60386.71
2018-09-10T02:29:10.135Z,60408.05
2018-09-10T02:31:38.298Z,60397.89
2018-09-10T02:34:06.481Z,60415.16
2018-09-10T02:36:34.679Z,60392.80
2018-09-10T02:39:02.873Z,60395.86
2018-09-10T02:41:31.072Z,60392.80
2018-09-10T02:43:59.247Z,60376.55
2018-09-10T02:46:27.424Z,60395.86
2018-09-10T02:48:55.594Z,60383.66
2018-09-10T02:51:23.807Z,60405.00
2018-09-10T02:53:51.991Z,60375.53
2018-09-10T02:56:20.188Z,60389.76
2018-09-10T02:58:48.363Z,60392.80
2018-09-10T03:01:16.563Z,60424.31
2018-09-10T03:03:44.750Z,60396.87
2018-09-10T03:06:12.932Z,60386.71
2018-09-10T03:08:41.102Z,60400.93
2018-09-10T03:11:09.318Z,60392.80
2018-09-10T03:13:37.499Z,60425.32
2018-09-10T03:16:05.686Z,60385.69
2018-09-10T03:18:33.889Z,60373.50
2018-09-10T03:21:02.134Z,60389.76
2018-09-10T03:23:30.340Z,60409.07
2018-09-10T03:25:58.511Z,60409.07
2018-09-10T03:28:26.703Z,60387.72
2018-09-10T03:30:54.888Z,60400.93
2018-09-10T03:33:23.191Z,60421.26
2018-09-10T03:35:51.459Z,60391.79
2018-09-10T03:38:19.652Z,60399.92
2018-09-10T03:40:47.910Z,60411.10
2018-09-10T03:43:16.110Z,60383.66
2018-09-10T03:45:44.315Z,60392.80
2018-09-10T03:48:12.607Z,60420.24
2018-09-10T03:50:40.822Z,60394.84
2018-09-10T03:53:09.054Z,60392.80
2018-09-10T03:55:37.336Z,60397.89
2018-09-10T03:58:05.544Z,60387.72
2018-09-10T04:00:33.829Z,60373.50
2018-09-10T04:03:02.091Z,60385.69
2018-09-10T04:05:30.335Z,60413.13
2018-09-10T04:07:58.586Z,60399.92
2018-09-10T04:10:26.774Z,60407.03
2018-09-10T04:12:54.952Z,60387.72
2018-09-10T04:15:23.214Z,60394.84
2018-09-10T04:17:51.416Z,60403.98
2018-09-10T04:20:19.698Z,60393.82
2018-09-10T04:22:47.895Z,60405.00
2018-09-10T04:25:16.121Z,60381.63
2018-09-10T04:27:44.326Z,60390.77
2018-09-10T04:30:15.543Z,60388.74
2018-09-10T04:32:43.795Z,60391.79
2018-09-10T04:35:12.603Z,60391.79
2018-09-10T04:37:41.250Z,60409.07
2018-09-10T04:40:09.504Z,60394.84
2018-09-10T04:42:37.744Z,60401.95
2018-09-10T04:45:06.179Z,60403.98
2018-09-10T04:47:34.456Z,60402.97
2018-09-10T04:50:03.135Z,60418.21
2018-09-10T04:52:31.351Z,60408.05
2018-09-10T04:54:59.645Z,60417.20
2018-09-10T04:57:27.859Z,60399.92
2018-09-10T04:59:56.159Z,60390.77
2018-09-10T05:02:24.335Z,60405.00
2018-09-10T05:04:52.572Z,60383.66
2018-09-10T05:07:20.896Z,60399.92
2018-09-10T05:09:49.196Z,60395.86
2018-09-10T05:12:17.356Z,60396.87
2018-09-10T05:14:45.583Z,60402.97
2018-09-10T05:17:13.764Z,60435.48
2018-09-10T05:19:42.013Z,60416.18
2018-09-10T05:22:10.286Z,60417.20
2018-09-10T05:24:38.435Z,60384.68
2018-09-10T05:27:06.638Z,60395.86
2018-09-10T05:29:34.836Z,60376.55
2018-09-10T05:32:03.048Z,60397.89
2018-09-10T05:34:31.259Z,60393.82
2018-09-10T05:36:59.483Z,60401.95
2018-09-10T05:39:27.703Z,60399.92
2018-09-10T05:41:55.986Z,60416.18
2018-09-10T05:44:24.196Z,60414.14
2018-09-10T05:46:52.446Z,60394.84
2018-09-10T05:49:20.686Z,60401.95
2018-09-10T05:51:49.012Z,60438.53
2018-09-10T05:54:17.237Z,60403.98
2018-09-10T05:56:45.956Z,60407.03
2018-09-10T05:59:14.228Z,60420.24
2018-09-10T06:01:42.513Z,60421.26
2018-09-10T06:04:10.736Z,60385.69
2018-09-10T06:06:38.926Z,60395.86
2018-09-10T06:09:07.580Z,60416.18
2018-09-10T06:11:35.828Z,60422.27
2018-09-10T06:14:04.112Z,60399.92
2018-09-10T06:16:32.342Z,60406.02
2018-09-10T06:19:00.772Z,60406.02
2018-09-10T06:21:34.619Z,60395.86
2018-09-10T06:24:02.824Z,60424.31
2018-09-10T06:26:31.084Z,60394.84
2018-09-10T06:28:59.320Z,60390.77
2018-09-10T06:31:27.507Z,60395.86
2018-09-10T06:33:56.590Z,60403.98
2018-09-10T06:36:25.284Z,60395.86
2018-09-10T06:38:53.608Z,60385.69
2018-09-10T06:41:21.935Z,60371.46
2018-09-10T06:43:50.204Z,60431.42
2018-09-10T06:46:18.421Z,60367.40
2018-09-10T06:48:46.711Z,60413.13
2018-09-10T06:51:14.912Z,60420.24
2018-09-10T06:53:43.123Z,60387.72
2018-09-10T06:56:11.348Z,60384.68
2018-09-10T06:58:39.561Z,60390.77
2018-09-10T07:01:07.740Z,60388.74
2018-09-10T07:03:35.958Z,60397.89
2018-09-10T07:06:04.146Z,60386.71
2018-09-10T07:08:32.409Z,60400.93
2018-09-10T07:11:00.568Z,60405.00
2018-09-10T07:13:28.794Z,60386.71
2018-09-10T07:15:56.948Z,60380.61
2018-09-10T07:18:25.200Z,60380.61
2018-09-10T07:20:53.438Z,60387.72
2018-09-10T07:23:21.627Z,60382.64
2018-09-10T07:25:49.833Z,60376.55
2018-09-10T07:28:18.023Z,60371.46
2018-09-10T07:30:46.318Z,60395.86
2018-09-10T07:33:14.572Z,60384.68
2018-09-10T07:35:43.290Z,60361.30
2018-09-10T07:38:11.503Z,60365.37
2018-09-10T07:40:39.758Z,60354.19
2018-09-10T07:43:07.958Z,60358.25
2018-09-10T07:45:36.219Z,60362.32
2018-09-10T07:48:04.630Z,60373.50
2018-09-10T07:50:32.847Z,60358.25
2018-09-10T07:53:01.034Z,60380.61
2018-09-10T07:55:29.299Z,60364.35
2018-09-10T07:57:57.527Z,60353.18
2018-09-10T08:00:25.799Z,60364.35
2018-09-10T08:02:54.029Z,60368.42
2018-09-10T08:05:22.251Z,60368.42
2018-09-10T08:07:50.576Z,60378.58
2018-09-10T08:10:18.821Z,60346.06
2018-09-10T08:12:47.265Z,60350.12
2018-09-10T08:15:15.424Z,60354.19
2018-09-10T08:17:43.698Z,60351.14
2018-09-10T08:20:11.927Z,60364.35
2018-09-10T08:22:40.169Z,60350.12
2018-09-10T08:25:08.472Z,60355.21
2018-09-10T08:27:36.690Z,60357.24
2018-09-10T08:30:05.275Z,60343.01
2018-09-10T08:32:33.528Z,60347.08
2018-09-10T08:35:01.729Z,60357.24
2018-09-10T08:37:29.928Z,60348.09
2018-09-10T08:39:58.119Z,60353.18
2018-09-10T08:42:26.529Z,60336.91
2018-09-10T08:44:54.799Z,60353.18
2018-09-10T08:47:22.999Z,60354.19
2018-09-10T08:49:51.286Z,60365.37
2018-09-10T08:52:19.560Z,60349.11
2018-09-10T08:54:48.244Z,60328.79
2018-09-10T08:57:16.048Z,60354.19
2018-09-10T08:59:44.509Z,60344.03
2018-09-10T09:02:12.749Z,60332.85
2018-09-10T09:04:41.006Z,60343.01
2018-09-10T09:07:09.220Z,60347.08
2018-09-10T09:09:37.431Z,60317.61
2018-09-10T09:12:05.630Z,60319.64
2018-09-10T09:14:33.812Z,60318.62
2018-09-10T09:17:01.992Z,60329.80
2018-09-10T09:19:30.189Z,60324.72
2018-09-10T09:21:58.476Z,60332.85
2018-09-10T09:24:26.782Z,60340.98
2018-09-10T09:26:54.993Z,60327.77
2018-09-10T09:29:23.233Z,60323.71
2018-09-10T09:31:51.529Z,60310.50
2018-09-10T09:34:19.800Z,60325.74
2018-09-10T09:36:53.426Z,60313.54
2018-09-10T09:39:26.899Z,60312.53
2018-09-10T09:42:00.304Z,60304.40
2018-09-10T09:44:33.796Z,60303.38
2018-09-10T09:47:02.015Z,60291.19
2018-09-10T09:49:30.224Z,60291.19
2018-09-10T09:51:58.450Z,60287.12
2018-09-10T09:54:26.646Z,60278.99
2018-09-10T09:56:54.884Z,60273.91
2018-09-10T09:59:23.104Z,60269.85
2018-09-10T10:01:52.704Z,60266.80
2018-09-10T10:04:21.024Z,60256.64
2018-09-10T10:06:49.155Z,60250.54
2018-09-10T10:09:17.371Z,60251.56
2018-09-10T10:11:45.782Z,60262.74
2018-09-10T10:14:13.916Z,60242.41
2018-09-10T10:16:42.170Z,60247.49
2018-09-10T10:19:10.381Z,60245.46
2018-09-10T10:21:38.613Z,60226.16
2018-09-10T10:24:06.914Z,60242.41
2018-09-10T10:26:35.136Z,60236.32
2018-09-10T10:29:03.334Z,60264.77
2018-09-10T10:31:31.585Z,60245.46
2018-09-10T10:33:59.799Z,60227.17
2018-09-10T10:36:28.004Z,60257.66
2018-09-10T10:38:56.217Z,60234.29
2018-09-10T10:41:24.446Z,60230.22
2018-09-10T10:43:52.658Z,60217.01
2018-09-10T10:46:20.868Z,60232.25
2018-09-10T10:48:49.089Z,60210.91
2018-09-10T10:51:17.310Z,60228.19
2018-09-10T10:53:45.536Z,60200.75
2018-09-10T10:56:13.716Z,60227.17
2018-09-10T10:58:42.012Z,60233.27
2018-09-10T11:01:10.256Z,60225.14
2018-09-10T11:03:38.433Z,60233.27
2018-09-10T11:06:06.704Z,60244.45
2018-09-10T11:08:34.876Z,60253.59
2018-09-10T11:11:03.052Z,60232.25
2018-09-10T11:13:31.235Z,60220.06
2018-09-10T11:15:59.415Z,60233.27
2018-09-10T11:18:27.600Z,60234.29
2018-09-10T11:20:55.790Z,60259.69
2018-09-10T11:23:23.964Z,60207.86
2018-09-10T11:25:52.148Z,60236.32
2018-09-10T11:28:20.355Z,60239.36
2018-09-10T11:30:48.530Z,60233.27
2018-09-10T11:33:16.724Z,60234.29
2018-09-10T11:35:45.016Z,60245.46
2018-09-10T11:38:13.199Z,60245.46
2018-09-10T11:40:41.383Z,60254.61
2018-09-10T11:43:09.582Z,60253.59
2018-09-10T11:45:37.795Z,60273.91
2018-09-10T11:48:06.185Z,60244.45
2018-09-10T11:50:34.797Z,60235.30
2018-09-10T11:53:03.062Z,60257.66
2018-09-10T11:55:31.778Z,60238.35
2018-09-10T11:57:59.875Z,60258.67
2018-09-10T12:00:28.060Z,60251.56
2018-09-10T12:02:56.273Z,60246.48
2018-09-10T12:05:24.448Z,60261.72
2018-09-10T12:07:52.644Z,60230.22
2018-09-10T12:10:20.816Z,60256.64
2018-09-10T12:12:49.005Z,60273.91
2018-09-10T12:15:18.427Z,60245.46
2018-09-10T12:17:46.615Z,60258.67
2018-09-10T12:20:14.814Z,60262.74
2018-09-10T12:22:43.000Z,60257.66
2018-09-10T12:25:11.187Z,60253.59
2018-09-10T12:27:39.375Z,60262.74
2018-09-10T12:30:07.630Z,60270.87
2018-09-10T12:32:35.809Z,60239.36
2018-09-10T12:35:04.011Z,60250.54
2018-09-10T12:37:32.258Z,60241.40
2018-09-10T12:40:00.445Z,60251.56
2018-09-10T12:42:28.636Z,60259.69
2018-09-10T12:44:56.855Z,60236.32
2018-09-10T12:47:25.179Z,60234.29
2018-09-10T12:49:53.404Z,60257.66
2018-09-10T12:52:21.590Z,60257.66
2018-09-10T12:54:49.783Z,60263.75
2018-09-10T12:57:17.967Z,60254.61
2018-09-10T12:59:46.180Z,60251.56
2018-09-10T13:02:14.375Z,60253.59
2018-09-10T13:04:42.557Z,60251.56
2018-09-10T13:07:10.888Z,60260.71
2018-09-10T13:09:39.104Z,60259.69
2018-09-10T13:12:07.315Z,60256.64
2018-09-10T13:14:35.512Z,60254.61
2018-09-10T13:17:04.068Z,60261.72
2018-09-10T13:19:32.274Z,60271.88
2018-09-10T13:22:00.483Z,60254.61
2018-09-10T13:24:28.662Z,60261.72
2018-09-10T13:26:57.078Z,60254.61
2018-09-10T13:29:25.321Z,60254.61
2018-09-10T13:31:53.523Z,60258.67
2018-09-10T13:34:21.715Z,60274.93
2018-09-10T13:36:49.929Z,60263.75
2018-09-10T13:39:18.169Z,60266.80
2018-09-10T13:41:46.378Z,60267.82
2018-09-10T13:44:14.600Z,60273.91
2018-09-10T13:46:42.797Z,60254.61
2018-09-10T13:49:11.005Z,60269.85
2018-09-10T13:51:39.182Z,60259.69
2018-09-10T13:54:07.423Z,60264.77
2018-09-10T13:56:35.558Z,60259.69
2018-09-10T13:59:03.760Z,60253.59
2018-09-10T14:01:31.976Z,60288.14
2018-09-10T14:04:00.195Z,60259.69
2018-09-10T14:06:28.384Z,60246.48
2018-09-10T14:08:56.574Z,60259.69
2018-09-10T14:11:24.743Z,60267.82
2018-09-10T14:13:52.948Z,60265.79
2018-09-10T14:16:21.149Z,60251.56
2018-09-10T14:18:49.336Z,60271.88
2018-09-10T14:21:17.615Z,60254.61
2018-09-10T14:23:45.823Z,60276.96
2018-09-10T14:26:14.000Z,60280.01
2018-09-10T14:28:42.199Z,60260.71
2018-09-10T14:31:10.422Z,60280.01
2018-09-10T14:33:38.615Z,60254.61
2018-09-10T14:36:06.823Z,60241.40
2018-09-10T14:38:35.047Z,60276.96
2018-09-10T14:41:03.224Z,60270.87
2018-09-10T14:43:31.400Z,60289.16
2018-09-10T14:45:59.703Z,60261.72
2018-09-10T14:48:27.908Z,60267.82
2018-09-10T14:50:56.165Z,60271.88
2018-09-10T14:53:24.355Z,60277.98
2018-09-10T14:55:52.639Z,60266.80
2018-09-10T14:58:20.838Z,60251.56
2018-09-10T15:00:48.994Z,60268.83
2018-09-10T15:03:17.200Z,60261.72
2018-09-10T15:05:45.458Z,60262.74
2018-09-10T15:08:13.592Z,60260.71
2018-09-10T15:10:41.795Z,60276.96
2018-09-10T15:13:09.975Z,60249.53
2018-09-10T15:15:38.167Z,60281.03
2018-09-10T15:18:06.934Z,60276.96
2018-09-10T15:20:35.150Z,60271.88
2018-09-10T15:23:03.339Z,60284.07
2018-09-10T15:25:31.537Z,60287.12
2018-09-10T15:27:59.719Z,60271.88
2018-09-10T15:30:27.898Z,60292.21
2018-09-10T15:32:56.099Z,60277.98
2018-09-10T15:35:24.275Z,60287.12
2018-09-10T15:37:52.459Z,60290.17
2018-09-10T15:40:20.636Z,60286.11
2018-09-10T15:42:48.847Z,60285.09
2018-09-10T15:45:17.081Z,60281.03
2018-09-10T15:47:45.219Z,60278.99
2018-09-10T15:50:13.428Z,60295.25
2018-09-10T15:52:41.606Z,60287.12
2018-09-10T15:55:09.783Z,60256.64
2018-09-10T15:57:38.006Z,60277.98
2018-09-10T16:00:06.287Z,60287.12
2018-09-10T16:02:34.466Z,60273.91
2018-09-10T16:05:02.647Z,60284.07
2018-09-10T16:07:30.833Z,60273.91
2018-09-10T16:09:59.019Z,60270.87
2018-09-10T16:12:27.216Z,60276.96
2018-09-10T16:14:55.988Z,60269.85
2018-09-10T16:17:24.205Z,60281.03
2018-09-10T16:19:52.407Z,60283.06
2018-09-10T16:22:20.636Z,60283.06
2018-09-10T16:24:48.850Z,60278.99
2018-09-10T16:27:17.088Z,60275.95
2018-09-10T16:29:45.227Z,60282.04
2018-09-10T16:32:13.412Z,60288.14
2018-09-10T16:34:41.602Z,60270.87
2018-09-10T16:37:09.803Z,60297.29
2018-09-10T16:39:38.144Z,60280.01
2018-09-10T16:42:06.337Z,60253.59
2018-09-10T16:44:34.511Z,60286.11
2018-09-10T16:47:02.726Z,60271.88
2018-09-10T16:52:33.343Z,60291.19
2018-09-10T16:55:01.647Z,60277.98
2018-09-10T16:57:29.715Z,60294.24
2018-09-10T16:59:57.925Z,60284.07
2018-09-10T17:02:26.108Z,60296.27
2018-09-10T17:04:58.695Z,60283.06
2018-09-10T17:07:29.172Z,60306.43
2018-09-10T17:09:57.338Z,60299.32
2018-09-10T17:12:25.544Z,60322.69
2018-09-10T17:14:53.777Z,60288.14
2018-09-10T17:17:21.899Z,60326.75
2018-09-10T17:19:50.079Z,60299.32
2018-09-10T17:22:18.280Z,60301.35
2018-09-10T17:24:46.465Z,60281.03
2018-09-10T17:27:14.664Z,60317.61
2018-09-10T17:29:42.834Z,60303.38
2018-09-10T17:32:11.051Z,60303.38
2018-09-10T17:34:39.231Z,60298.30
2018-09-10T17:37:07.455Z,60304.40
2018-09-10T17:39:35.630Z,60301.35
2018-09-10T17:42:03.824Z,60311.51
2018-09-10T17:44:32.016Z,60322.69
2018-09-10T17:47:00.276Z,60289.16
2018-09-10T17:49:28.366Z,60308.46
2018-09-10T17:51:56.737Z,60307.45
2018-09-10T17:54:24.945Z,60308.46
2018-09-10T17:56:54.362Z,60297.29
2018-09-10T17:59:22.671Z,60312.53
2018-09-10T18:01:52.652Z,60327.77
2018-09-10T18:04:20.895Z,60306.43
2018-09-10T18:06:49.783Z,60323.71
2018-09-10T18:09:18.878Z,60343.01
2018-09-10T18:11:47.126Z,60312.53
2018-09-10T18:14:15.397Z,60332.85
2018-09-10T18:16:43.748Z,60321.67
2018-09-10T18:19:11.951Z,60315.57
2018-09-10T18:21:42.234Z,60311.51
2018-09-10T18:24:10.448Z,60325.74
2018-09-10T18:26:38.702Z,60339.96
2018-09-10T18:29:06.884Z,60328.79
2018-09-10T18:31:35.199Z,60315.57
2018-09-10T18:34:03.563Z,60352.16
2018-09-10T18:36:32.280Z,60325.74
2018-09-10T18:39:01.113Z,60331.84
2018-09-10T18:41:29.270Z,60304.40
2018-09-10T18:43:58.707Z,60334.88
2018-09-10T18:53:05.559Z,60313.54
2018-09-10T18:55:33.973Z,60321.67
2018-09-10T18:58:02.227Z,60312.53
2018-09-10T19:00:30.480Z,60328.79
2018-09-10T19:02:59.414Z,60309.48
2018-09-10T19:05:27.686Z,60334.88
2018-09-10T19:07:56.408Z,60331.84
2018-09-10T19:10:25.643Z,60336.91
2018-09-10T19:12:54.227Z,60348.09
2018-09-10T19:15:22.492Z,60328.79
2018-09-10T19:17:50.791Z,60329.80
2018-09-10T19:20:19.223Z,60338.95
2018-09-10T19:22:48.507Z,60337.93
2018-09-10T19:25:16.715Z,60352.16
2018-09-10T19:27:45.134Z,60348.09
2018-09-10T19:30:13.461Z,60371.46
2018-09-10T19:32:41.695Z,60371.46
2018-09-10T19:35:09.988Z,60357.24
2018-09-10T19:37:38.285Z,60364.35
2018-09-10T19:40:06.459Z,60340.98
2018-09-10T19:42:34.691Z,60357.24
2018-09-10T19:45:03.939Z,60352.16
2018-09-10T19:47:32.224Z,60352.16
2018-09-10T19:50:00.436Z,60353.18
2018-09-10T19:52:29.452Z,60348.09
2018-09-10T19:54:59.109Z,60366.39
2018-09-10T19:57:28.476Z,60383.66
2018-09-10T19:59:57.564Z,60375.53
2018-09-10T20:02:27.880Z,60360.29
2018-09-10T20:04:57.454Z,60335.90
2018-09-10T20:07:26.757Z,60365.37
2018-09-10T20:09:55.237Z,60357.24
2018-09-10T20:12:23.524Z,60371.46
2018-09-10T20:14:51.807Z,60355.21
2018-09-10T20:17:20.019Z,60379.59
2018-09-10T20:19:48.235Z,60363.34
2018-09-10T20:22:18.408Z,60365.37
2018-09-10T20:24:46.662Z,60372.48
2018-09-10T20:27:15.773Z,60413.13
2018-09-10T20:29:45.830Z,60385.69
2018-09-10T20:32:13.992Z,60373.50
2018-09-10T20:34:42.163Z,60386.71
2018-09-10T20:37:10.343Z,60388.74
2018-09-10T20:39:38.576Z,60379.59
2018-09-10T20:42:06.715Z,60395.86
2018-09-10T20:44:34.878Z,60389.76
2018-09-10T20:47:03.064Z,60395.86
2018-09-10T20:49:31.432Z,60389.76
2018-09-10T20:51:59.626Z,60383.66
2018-09-10T20:54:27.807Z,60387.72
2018-09-10T20:56:55.995Z,60391.79
2018-09-10T20:59:24.195Z,60370.45
2018-09-10T21:01:52.363Z,60374.52
2018-09-10T21:04:20.547Z,60375.53
2018-09-10T21:06:48.740Z,60382.64
2018-09-10T21:09:16.919Z,60388.74
2018-09-10T21:11:45.100Z,60379.59
2018-09-10T21:14:13.272Z,60373.50
2018-09-10T21:16:41.563Z,60377.56
2018-09-10T21:19:09.732Z,60367.40
2018-09-10T21:21:37.907Z,60365.37
2018-09-10T21:24:06.159Z,60372.48
2018-09-10T21:26:34.334Z,60380.61
2018-09-10T21:29:02.816Z,60360.29
2018-09-10T21:31:31.018Z,60385.69
2018-09-10T21:33:59.180Z,60394.84
2018-09-10T21:36:27.374Z,60373.50
2018-09-10T21:38:55.576Z,60390.77
2018-09-10T21:41:23.750Z,60392.80
2018-09-10T21:43:51.928Z,60406.02
2018-09-10T21:46:20.130Z,60385.69
2018-09-10T21:48:48.328Z,60373.50
2018-09-10T21:51:16.528Z,60400.93
2018-09-10T21:53:44.780Z,60408.05
2018-09-10T21:56:12.895Z,60384.68
2018-09-10T21:58:41.095Z,60409.07
2018-09-10T22:01:09.278Z,60388.74
2018-09-10T22:03:37.467Z,60389.76
2018-09-10T22:06:05.648Z,60372.48
2018-09-10T22:08:33.828Z,60408.05
2018-09-10T22:11:02.012Z,60406.02
2018-09-10T22:13:30.204Z,60420.24
2018-09-10T22:15:58.375Z,60390.77
2018-09-10T22:18:26.555Z,60370.45
2018-09-10T22:20:54.739Z,60415.16
2018-09-10T22:23:22.927Z,60388.74
2018-09-10T22:25:51.124Z,60408.05
2018-09-10T22:28:19.307Z,60387.72
2018-09-10T22:30:47.483Z,60414.14
2018-09-10T22:33:15.741Z,60386.71
2018-09-10T22:35:43.928Z,60403.98
2018-09-10T22:38:12.107Z,60385.69
2018-09-10T22:40:40.287Z,60417.20
2018-09-10T22:43:08.470Z,60397.89
2018-09-10T22:45:36.664Z,60419.23
2018-09-10T22:48:05.087Z,60423.29
2018-09-10T22:50:33.288Z,60409.07
2018-09-10T22:53:01.495Z,60386.71
2018-09-10T22:55:29.723Z,60393.82
2018-09-10T22:57:57.930Z,60390.77
2018-09-10T23:00:26.108Z,60413.13
2018-09-10T23:02:54.299Z,60396.87
2018-09-10T23:05:22.479Z,60396.87
2018-09-10T23:07:50.646Z,60414.14
2018-09-10T23:10:18.834Z,60408.05
2018-09-10T23:12:47.025Z,60415.16
2018-09-10T23:15:15.198Z,60373.50
2018-09-10T23:17:43.391Z,60396.87
2018-09-10T23:20:11.591Z,60410.08
2018-09-10T23:22:39.800Z,60395.86
2018-09-10T23:25:08.034Z,60398.90
2018-09-10T23:27:36.226Z,60403.98
2018-09-10T23:30:04.448Z,60396.87
2018-09-10T23:32:32.648Z,60396.87
2018-09-10T23:35:00.833Z,60387.72
2018-09-10T23:37:29.003Z,60393.82
2018-09-10T23:39:57.195Z,60397.89
2018-09-10T23:42:25.379Z,60411.10
2018-09-10T23:44:53.567Z,60395.86
2018-09-10T23:47:21.739Z,60406.02
2018-09-10T23:49:49.947Z,60390.77
2018-09-10T23:52:18.123Z,60389.76
2018-09-10T23:54:46.307Z,60417.20
2018-09-10T23:57:14.490Z,60402.97
2018-09-10T23:59:42.668Z,60376.55
